Paton, Iowa
Current Conditions -  °F | °C
As of 7:35 AM on Sunday 21 Dec 2014 (Local Time) from KBNW Reporting Station
Haze Haze  
Wind Chill: 27°   Ceiling: 600
Heat Index: 36°   Visibility: 4mi
Dew Point: 36°   Wind: 13mph
Humidity: 100%   Direction: 180°S
Pressure: 29.92"   Gusts: 20mph
Location:  42.16°N, 94.26°W
Report Text: KBNW 211335Z AUTO 18011G17KT 4SM BR OVC006 02/02 A2992 RMK AO2
Loading
Personal Weather Stations






























Interactive Weather Map New forecast layout! Learn more

10-Day Weather Forecast

Advertisements
Track Severe Weather on mobile